Time;durP1;ratioP1;P1;durP2;ratioP2;P2;SDS_P1;SDS_P2;PMS_P1;PMS_P2;Temp;Humidity;BMP_temperature;BMP_pressure;BME280_temperature;BME280_humidity;BME280_pressure;Samples;Min_cycle;Max_cycle;Signal;HPM_P1;HPM_P2
2022/04/10 00:02:21;;;;;;;45.78;14.95;;;12.60;99.90;;;;;;5269445;28;20456;-71
2022/04/10 00:04:52;;;;;;;52.13;14.77;;;12.60;99.90;;;;;;5269941;28;20110;-71
2022/04/10 00:07:22;;;;;;;50.40;15.23;;;12.50;99.90;;;;;;5270087;28;20031;-71
2022/04/10 00:09:53;;;;;;;50.63;16.27;;;12.50;99.90;;;;;;5269887;28;20051;-71
2022/04/10 00:12:24;;;;;;;47.42;16.23;;;12.50;99.90;;;;;;5269692;28;20028;-72
2022/04/10 00:14:55;;;;;;;53.72;16.48;;;12.40;99.90;;;;;;5269462;28;20024;-71
2022/04/10 00:17:26;;;;;;;47.20;15.63;;;12.20;99.90;;;;;;5269725;28;20419;-70
2022/04/10 00:19:57;;;;;;;49.53;16.15;;;12.40;99.90;;;;;;5269979;28;20059;-70
2022/04/10 00:22:28;;;;;;;50.20;16.52;;;12.20;99.90;;;;;;5279991;28;20046;-71
2022/04/10 00:24:59;;;;;;;54.30;15.70;;;12.10;99.90;;;;;;5269640;28;20065;-71
2022/04/10 00:27:30;;;;;;;53.65;16.60;;;11.90;99.90;;;;;;5269733;28;20031;-72
2022/04/10 00:30:01;;;;;;;43.58;16.27;;;11.90;99.90;;;;;;5269660;28;20337;-71
2022/04/10 00:32:32;;;;;;;47.08;15.55;;;12.00;99.90;;;;;;5269518;28;20721;-70
2022/04/10 00:35:05;;;;;;;47.10;15.02;;;12.40;99.90;;;;;;5269386;28;20027;-70
2022/04/10 00:37:37;;;;;;;51.30;13.93;;;12.20;99.90;;;;;;5269481;28;20539;-71
2022/04/10 00:40:10;;;;;;;44.83;14.48;;;12.50;99.90;;;;;;5269286;28;20475;-69
2022/04/10 00:42:46;;;;;;;48.03;15.15;;;12.30;99.90;;;;;;5269059;28;20043;-71
2022/04/10 00:45:20;;;;;;;42.97;15.60;;;11.90;99.90;;;;;;5269292;28;20524;-71
2022/04/10 00:47:51;;;;;;;51.75;16.67;;;11.60;99.90;;;;;;5269260;28;20036;-71
2022/04/10 00:50:22;;;;;;;40.90;13.32;;;11.60;99.90;;;;;;5269174;28;20050;-72
2022/04/10 00:52:54;;;;;;;57.72;16.45;;;11.90;99.90;;;;;;5268976;28;20827;-71
2022/04/10 00:55:25;;;;;;;38.67;13.82;;;11.80;99.90;;;;;;5269117;28;20024;-71
2022/04/10 00:57:56;;;;;;;44.40;14.02;;;12.10;99.90;;;;;;5269321;28;20474;-70
2022/04/10 01:00:26;;;;;;;47.35;14.85;;;11.80;99.90;;;;;;5269015;28;20042;-71
2022/04/10 01:02:57;;;;;;;51.90;15.00;;;11.90;99.90;;;;;;5269122;28;20030;-70
2022/04/10 01:05:28;;;;;;;51.47;14.55;;;11.80;99.90;;;;;;5269069;28;20019;-71
2022/04/10 01:07:59;;;;;;;42.22;15.38;;;11.70;99.90;;;;;;5268993;28;20430;-71
2022/04/10 01:10:30;;;;;;;53.08;15.50;;;11.60;99.90;;;;;;5268882;28;20075;-70
2022/04/10 01:13:01;;;;;;;53.70;14.82;;;11.80;99.90;;;;;;5276354;28;20016;-74
2022/04/10 01:15:32;;;;;;;56.13;16.88;;;11.70;99.90;;;;;;5296803;28;20035;-69
2022/04/10 01:18:04;;;;;;;47.15;15.00;;;11.80;99.90;;;;;;5296927;28;20044;-71
2022/04/10 01:20:35;;;;;;;54.03;16.33;;;11.60;99.90;;;;;;5296937;28;20086;-69
2022/04/10 01:23:07;;;;;;;50.90;16.30;;;11.70;99.90;;;;;;5296816;28;20507;-74
2022/04/10 01:25:38;;;;;;;51.45;15.40;;;11.90;99.90;;;;;;5297155;28;20467;-71
2022/04/10 01:28:13;;;;;;;57.53;16.33;;;11.70;99.90;;;;;;5296943;28;20039;-71
2022/04/10 01:30:44;;;;;;;48.90;15.70;;;12.00;99.90;;;;;;5296955;28;20023;-71
2022/04/10 01:33:14;;;;;;;44.25;15.63;;;11.80;99.90;;;;;;5297056;28;20031;-72
2022/04/10 01:35:47;;;;;;;50.92;15.90;;;11.80;99.90;;;;;;5296953;28;20361;-72
2022/04/10 01:38:19;;;;;;;49.40;15.52;;;11.90;99.90;;;;;;5296931;28;20039;-71
2022/04/10 01:40:50;;;;;;;39.70;15.32;;;12.20;99.90;;;;;;5296821;28;20027;-67
2022/04/10 01:43:21;;;;;;;55.40;16.45;;;11.80;99.90;;;;;;5278468;28;20027;-72
2022/04/10 01:45:52;;;;;;;54.70;16.08;;;12.20;99.90;;;;;;5296825;28;20085;-70
2022/04/10 01:48:22;;;;;;;59.15;16.33;;;12.20;99.90;;;;;;5296760;28;20027;-73
2022/04/10 01:50:53;;;;;;;53.28;14.95;;;11.90;99.90;;;;;;5296648;28;20536;-69
2022/04/10 01:53:24;;;;;;;46.88;14.43;;;11.80;99.90;;;;;;5296653;28;20359;-70
2022/04/10 01:55:55;;;;;;;54.00;16.02;;;11.80;99.90;;;;;;5296944;28;20051;-73
2022/04/10 01:58:26;;;;;;;48.80;14.07;;;12.10;99.90;;;;;;5296663;28;20020;-71
2022/04/10 02:00:56;;;;;;;56.00;16.13;;;11.70;99.90;;;;;;5296551;28;20039;-73
2022/04/10 02:03:27;;;;;;;63.15;17.02;;;12.00;99.90;;;;;;5296649;28;20483;-69
2022/04/10 02:06:01;;;;;;;45.70;15.55;;;11.90;99.90;;;;;;5296624;28;20027;-73
2022/04/10 02:08:34;;;;;;;44.38;14.20;;;12.20;99.90;;;;;;5296672;28;20413;-69
2022/04/10 02:11:19;;;;;;;55.20;15.43;;;11.80;99.90;;;;;;5296501;28;20026;-69
2022/04/10 02:13:50;;;;;;;46.58;15.48;;;11.70;99.90;;;;;;5296548;28;20491;-73
2022/04/10 02:16:21;;;;;;;52.92;15.30;;;11.70;99.90;;;;;;5296303;28;20051;-70
2022/04/10 02:18:52;;;;;;;48.10;15.02;;;11.90;99.90;;;;;;5296470;28;20108;-69
2022/04/10 02:21:22;;;;;;;45.28;14.65;;;12.00;99.90;;;;;;5296437;28;20036;-72
2022/04/10 02:23:53;;;;;;;48.50;15.73;;;11.90;99.90;;;;;;5293836;28;20023;-73
2022/04/10 02:26:24;;;;;;;45.85;14.45;;;11.90;99.90;;;;;;5293113;28;20028;-73
2022/04/10 02:28:55;;;;;;;49.22;14.45;;;12.10;99.90;;;;;;5293060;28;20027;-73
2022/04/10 02:31:26;;;;;;;41.40;14.32;;;12.10;99.90;;;;;;5283865;28;20017;-69
2022/04/10 02:33:57;;;;;;;65.97;16.45;;;12.00;99.90;;;;;;5271774;28;20030;-72
2022/04/10 02:36:27;;;;;;;35.65;13.68;;;11.80;99.90;;;;;;5271954;28;20416;-73
2022/04/10 02:38:58;;;;;;;53.75;16.35;;;11.40;99.90;;;;;;5271726;28;20028;-72
2022/04/10 02:41:29;;;;;;;53.00;16.20;;;12.00;99.90;;;;;;5271654;28;20506;-73
2022/04/10 02:44:00;;;;;;;46.67;15.18;;;11.70;99.90;;;;;;5271573;28;20024;-73
2022/04/10 02:46:31;;;;;;;50.70;15.65;;;11.70;99.90;;;;;;5271721;28;20428;-69
2022/04/10 02:49:02;;;;;;;53.08;15.68;;;11.60;99.90;;;;;;5271445;28;20119;-69
2022/04/10 02:51:32;;;;;;;52.85;17.02;;;11.60;99.90;;;;;;5271265;28;20088;-72
2022/04/10 02:54:03;;;;;;;42.17;16.27;;;11.90;99.90;;;;;;5271488;28;20028;-69
2022/04/10 02:56:34;;;;;;;52.55;16.45;;;12.20;99.90;;;;;;5271479;28;20107;-69
2022/04/10 02:59:05;;;;;;;48.70;15.73;;;12.20;99.90;;;;;;5271544;28;20027;-70
2022/04/10 03:01:36;;;;;;;52.47;15.88;;;12.20;99.90;;;;;;5271185;28;20032;-69
2022/04/10 03:04:07;;;;;;;63.88;16.52;;;12.10;99.90;;;;;;5271367;28;20069;-69
2022/04/10 03:06:37;;;;;;;49.13;15.63;;;12.30;99.90;;;;;;5271323;28;20081;-73
2022/04/10 03:09:08;;;;;;;52.38;16.90;;;12.40;99.90;;;;;;5271267;28;20141;-69
2022/04/10 03:11:39;;;;;;;39.80;13.55;;;12.20;99.90;;;;;;5271219;28;20486;-69
2022/04/10 03:14:10;;;;;;;46.20;12.32;;;12.20;99.90;;;;;;5270888;28;20479;-69
2022/04/10 03:16:42;;;;;;;37.97;13.55;;;12.20;99.90;;;;;;5270800;28;20112;-69
2022/04/10 03:19:13;;;;;;;43.20;14.90;;;11.80;99.90;;;;;;5270889;28;20024;-69
2022/04/10 03:21:43;;;;;;;54.47;15.13;;;11.50;99.90;;;;;;5270886;28;20135;-69
2022/04/10 03:24:14;;;;;;;43.83;14.98;;;11.70;99.90;;;;;;5270812;28;20028;-70
2022/04/10 03:26:45;;;;;;;42.60;14.48;;;11.70;99.90;;;;;;5270788;28;20471;-69
2022/04/10 03:29:16;;;;;;;46.53;13.55;;;11.90;99.90;;;;;;5270877;28;20111;-69
2022/04/10 03:31:46;;;;;;;48.50;12.18;;;11.60;99.90;;;;;;5270721;28;20081;-69
2022/04/10 03:34:17;;;;;;;40.88;13.10;;;11.90;99.90;;;;;;5270666;28;20024;-69
2022/04/10 03:36:48;;;;;;;36.33;12.73;;;12.10;99.90;;;;;;5269532;28;20039;-69
2022/04/10 03:39:19;;;;;;;46.03;12.18;;;11.80;99.90;;;;;;5270668;28;20021;-69
2022/04/10 03:41:50;;;;;;;33.28;11.55;;;11.80;99.90;;;;;;5270426;28;20388;-69
2022/04/10 03:44:21;;;;;;;39.97;12.48;;;11.80;99.90;;;;;;5270612;28;20028;-69
2022/04/10 03:46:52;;;;;;;44.47;12.95;;;11.60;99.90;;;;;;5270486;28;20028;-73
2022/04/10 03:49:22;;;;;;;40.30;12.40;;;11.50;99.90;;;;;;5270195;28;20077;-69
2022/04/10 03:51:53;;;;;;;43.55;12.25;;;11.30;99.90;;;;;;5270208;28;20024;-73
2022/04/10 03:54:24;;;;;;;38.17;11.82;;;11.60;99.90;;;;;;5270239;28;20095;-69
2022/04/10 03:56:55;;;;;;;36.22;11.82;;;11.70;99.90;;;;;;5270218;28;20077;-73
2022/04/10 03:59:25;;;;;;;38.63;11.55;;;11.70;99.90;;;;;;5270010;28;20054;-73
2022/04/10 04:01:56;;;;;;;38.13;11.25;;;11.80;99.90;;;;;;5270233;28;20073;-69
2022/04/10 04:04:27;;;;;;;40.08;11.07;;;11.90;99.90;;;;;;5270108;28;20051;-69
2022/04/10 04:06:58;;;;;;;39.65;11.50;;;11.80;99.90;;;;;;5270082;28;20028;-69
2022/04/10 04:09:29;;;;;;;38.05;10.95;;;11.90;99.90;;;;;;5269876;28;20012;-69
2022/04/10 04:12:00;;;;;;;39.67;11.68;;;12.10;99.90;;;;;;5269881;28;20027;-69
2022/04/10 04:14:31;;;;;;;46.30;11.13;;;12.30;99.90;;;;;;5269622;28;20443;-69
2022/04/10 04:17:02;;;;;;;37.70;10.82;;;12.50;99.90;;;;;;5269774;28;20060;-69
2022/04/10 04:19:33;;;;;;;39.67;10.52;;;12.40;99.90;;;;;;5269710;28;20487;-69
2022/04/10 04:22:04;;;;;;;38.40;11.30;;;12.30;99.90;;;;;;5269673;28;20032;-69
2022/04/10 04:24:35;;;;;;;29.85;10.05;;;12.40;99.90;;;;;;5269746;28;20462;-73
2022/04/10 04:27:05;;;;;;;29.50;9.68;;;12.60;99.90;;;;;;5269689;28;20035;-73
2022/04/10 04:29:36;;;;;;;33.75;10.60;;;12.80;99.90;;;;;;5269513;28;20024;-73
2022/04/10 04:32:08;;;;;;;38.67;10.95;;;12.80;99.90;;;;;;5269453;28;20031;-69
2022/04/10 04:34:38;;;;;;;36.75;11.23;;;12.90;99.90;;;;;;5269598;28;20028;-71
2022/04/10 04:37:09;;;;;;;32.47;10.07;;;13.00;99.90;;;;;;5269364;28;20043;-70
2022/04/10 04:39:40;;;;;;;42.53;10.30;;;13.10;99.90;;;;;;5269227;28;20024;-69
2022/04/10 04:42:11;;;;;;;26.67;10.15;;;13.40;99.90;;;;;;5269471;28;20036;-69
2022/04/10 04:44:42;;;;;;;36.20;10.05;;;13.30;99.90;;;;;;5269440;28;20346;-69
2022/04/10 04:47:13;;;;;;;32.95;9.00;;;13.40;99.90;;;;;;5268890;28;20497;-70
2022/04/10 04:49:43;;;;;;;34.63;10.35;;;13.50;99.90;;;;;;5269086;28;20034;-69
2022/04/10 04:52:16;;;;;;;31.35;8.77;;;13.70;99.90;;;;;;5269102;28;20031;-69
2022/04/10 04:54:47;;;;;;;27.60;9.07;;;13.70;99.90;;;;;;5269035;28;20039;-69
2022/04/10 04:57:17;;;;;;;32.15;9.18;;;14.00;99.90;;;;;;5269395;28;20341;-69
2022/04/10 04:59:48;;;;;;;29.70;8.57;;;14.20;99.90;;;;;;5269011;28;20057;-73
2022/04/10 05:02:19;;;;;;;30.10;8.30;;;14.30;99.90;;;;;;5269212;28;20058;-69
2022/04/10 05:04:51;;;;;;;29.33;7.50;;;14.40;99.90;;;;;;5250930;28;20074;-70
2022/04/10 05:07:23;;;;;;;29.15;7.43;;;14.40;99.90;;;;;;5268653;28;20039;-69
2022/04/10 05:09:53;;;;;;;34.13;7.97;;;14.20;99.90;;;;;;5268457;28;20032;-71
2022/04/10 05:12:24;;;;;;;26.42;8.05;;;14.20;99.90;;;;;;5272803;28;20032;-73
2022/04/10 05:14:55;;;;;;;23.17;7.53;;;14.10;99.90;;;;;;5287702;28;20110;-73
2022/04/10 05:17:28;;;;;;;35.45;8.20;;;14.20;99.90;;;;;;5288370;28;20103;-74
2022/04/10 05:19:59;;;;;;;26.65;8.05;;;14.30;99.90;;;;;;5287951;28;20052;-72
2022/04/10 05:22:29;;;;;;;29.73;8.07;;;14.50;99.90;;;;;;5287931;28;20117;-69
2022/04/10 05:25:00;;;;;;;25.08;7.35;;;14.70;99.90;;;;;;5287969;28;20020;-73
2022/04/10 05:27:31;;;;;;;27.42;6.72;;;14.90;99.90;;;;;;5288105;28;20505;-74
2022/04/10 05:30:02;;;;;;;31.98;8.30;;;15.10;99.90;;;;;;5287920;28;20055;-68
2022/04/10 05:32:33;;;;;;;25.63;6.97;;;15.30;99.90;;;;;;5288001;28;20146;-68
2022/04/10 05:35:04;;;;;;;28.95;6.40;;;15.50;99.90;;;;;;5285207;28;20389;-69
2022/04/10 05:37:35;;;;;;;26.48;9.05;;;15.60;99.90;;;;;;5287951;28;20425;-74
2022/04/10 05:40:07;;;;;;;28.73;8.02;;;15.80;99.90;;;;;;5287811;28;20019;-69
2022/04/10 05:42:46;;;;;;;22.23;6.70;;;15.80;99.90;;;;;;5289823;28;20491;-74
2022/04/10 05:45:17;;;;;;;24.90;9.52;;;16.00;99.90;;;;;;5289558;28;20023;-74
2022/04/10 05:47:48;;;;;;;22.92;8.10;;;16.20;99.90;;;;;;5289731;28;20034;-74
2022/04/10 05:50:19;;;;;;;19.40;6.18;;;16.30;99.90;;;;;;5289723;28;20022;-69
2022/04/10 05:52:51;;;;;;;18.85;5.28;;;16.30;99.90;;;;;;5289569;28;20023;-69
2022/04/10 05:55:23;;;;;;;15.88;6.07;;;16.50;99.90;;;;;;5289704;28;20030;-74
2022/04/10 05:57:53;;;;;;;22.90;5.32;;;16.90;99.90;;;;;;5289597;28;20028;-70
2022/04/10 06:00:25;;;;;;;28.35;5.53;;;16.70;99.90;;;;;;5292935;28;20038;-73
2022/04/10 06:02:56;;;;;;;20.50;5.75;;;17.20;99.90;;;;;;5293680;28;20556;-71
2022/04/10 06:05:26;;;;;;;20.45;4.88;;;17.00;99.90;;;;;;5293480;28;20555;-70
2022/04/10 06:07:57;;;;;;;17.50;4.15;;;17.10;99.90;;;;;;5293440;28;20099;-74
2022/04/10 06:10:28;;;;;;;19.85;5.18;;;17.30;99.90;;;;;;5293340;28;20073;-71
2022/04/10 06:13:17;;;;;;;20.45;4.90;;;17.30;99.90;;;;;;5293433;28;20016;-69
2022/04/10 06:15:48;;;;;;;15.57;5.45;;;17.40;99.90;;;;;;5292733;28;20047;-70
2022/04/10 06:18:20;;;;;;;14.63;4.10;;;17.70;99.90;;;;;;5293339;28;20077;-70
2022/04/10 06:20:51;;;;;;;17.23;4.97;;;17.50;99.90;;;;;;5293199;28;20038;-73
2022/04/10 06:23:23;;;;;;;12.88;3.90;;;17.90;99.90;;;;;;5293180;28;20045;-70
2022/04/10 06:25:54;;;;;;;17.27;3.33;;;17.70;99.90;;;;;;5293094;28;20035;-73
2022/04/10 06:28:24;;;;;;;15.00;3.67;;;17.70;99.90;;;;;;5293164;28;20023;-70
2022/04/10 06:30:55;;;;;;;11.23;3.47;;;17.60;99.90;;;;;;5292907;28;20016;-74
2022/04/10 06:33:26;;;;;;;16.65;4.03;;;17.50;99.90;;;;;;5293033;28;20050;-73
2022/04/10 06:35:57;;;;;;;16.70;3.75;;;17.40;99.90;;;;;;5293046;28;20020;-70
2022/04/10 06:38:27;;;;;;;17.00;4.18;;;17.40;99.90;;;;;;5292878;28;20024;-74
2022/04/10 06:40:58;;;;;;;13.25;3.88;;;17.60;99.90;;;;;;5292852;28;20036;-70
2022/04/10 06:43:29;;;;;;;16.45;3.50;;;17.90;99.90;;;;;;5292529;28;20050;-73
2022/04/10 06:46:00;;;;;;;17.95;3.38;;;18.30;99.90;;;;;;5292819;28;20020;-73
2022/04/10 06:48:31;;;;;;;10.48;3.08;;;18.50;99.90;;;;;;5292505;28;20481;-70
2022/04/10 06:51:03;;;;;;;14.85;2.92;;;18.60;99.90;;;;;;5292484;28;20076;-71
2022/04/10 06:53:34;;;;;;;13.45;3.60;;;18.60;99.90;;;;;;5292404;28;20011;-70
2022/04/10 06:56:04;;;;;;;15.80;3.60;;;18.80;99.90;;;;;;5292638;28;20030;-70
2022/04/10 06:58:35;;;;;;;15.88;3.45;;;18.90;99.90;;;;;;5292445;28;20047;-73
2022/04/10 07:01:06;;;;;;;13.25;3.08;;;19.10;99.90;;;;;;5292303;28;20050;-70
2022/04/10 07:03:37;;;;;;;10.65;3.08;;;19.00;99.90;;;;;;5292360;28;20043;-70
2022/04/10 07:06:08;;;;;;;14.23;4.15;;;18.90;99.90;;;;;;5292257;28;20116;-70
2022/04/10 07:08:39;;;;;;;12.52;2.70;;;19.40;99.90;;;;;;5292367;28;20422;-71
2022/04/10 07:11:10;;;;;;;11.48;3.03;;;19.80;99.90;;;;;;5291833;28;20036;-70
2022/04/10 07:13:40;;;;;;;12.05;2.55;;;19.60;99.90;;;;;;5292054;28;20035;-74
2022/04/10 07:16:11;;;;;;;11.25;3.22;;;19.70;99.90;;;;;;5291978;28;20043;-73
2022/04/10 07:18:42;;;;;;;14.25;2.80;;;19.50;99.90;;;;;;5292052;28;20051;-73
2022/04/10 07:21:13;;;;;;;9.50;2.13;;;19.70;99.90;;;;;;5292060;28;20024;-70
2022/04/10 07:23:45;;;;;;;12.75;2.95;;;19.80;99.90;;;;;;5292117;28;20019;-70
2022/04/10 07:26:16;;;;;;;15.65;3.28;;;19.70;99.90;;;;;;5291754;28;20546;-72
2022/04/10 07:28:48;;;;;;;12.98;3.20;;;20.00;99.90;;;;;;5291724;28;20107;-71
2022/04/10 07:31:19;;;;;;;14.60;3.28;;;19.80;99.90;;;;;;5291861;28;20020;-70
2022/04/10 07:33:50;;;;;;;12.60;2.80;;;20.20;99.90;;;;;;5291822;28;20034;-69
2022/04/10 07:36:21;;;;;;;14.93;2.78;;;20.10;99.90;;;;;;5292124;28;20031;-73
2022/04/10 07:38:51;;;;;;;14.65;2.90;;;20.40;99.90;;;;;;5284734;28;20495;-71
2022/04/10 07:41:22;;;;;;;10.88;3.15;;;20.70;99.90;;;;;;5276978;28;20032;-70
2022/04/10 07:43:53;;;;;;;13.00;3.45;;;20.70;99.90;;;;;;5269179;28;20024;-72
2022/04/10 07:49:14;;;;;;;13.97;3.20;;;20.10;99.90;;;;;;5269693;28;20035;-70
2022/04/10 07:51:51;;;;;;;12.65;3.20;;;20.40;99.90;;;;;;5269725;28;20270;-70
2022/04/10 07:54:27;;;;;;;10.18;2.97;;;20.50;99.90;;;;;;5269829;28;20028;-72
2022/04/10 07:57:02;;;;;;;13.18;2.80;;;20.40;99.90;;;;;;5269813;28;20076;-74
2022/04/10 07:59:32;;;;;;;11.50;3.30;;;20.30;99.90;;;;;;5269666;28;20031;-72
2022/04/10 08:02:03;;;;;;;16.15;2.70;;;20.40;99.90;;;;;;5270003;28;20105;-70
2022/04/10 08:04:34;;;;;;;10.15;2.63;;;20.50;99.90;;;;;;5270238;28;20537;-73
2022/04/10 08:07:05;;;;;;;8.25;2.33;;;21.00;99.90;;;;;;5269881;28;20040;-70
2022/04/10 08:09:36;;;;;;;14.35;2.45;;;20.40;99.90;;;;;;5269590;28;20024;-69
2022/04/10 08:12:07;;;;;;;8.98;2.25;;;20.90;99.90;;;;;;5269559;28;20394;-73
2022/04/10 08:14:38;;;;;;;8.32;2.42;;;21.20;99.90;;;;;;5284267;28;20016;-69
2022/04/10 08:17:11;;;;;;;13.45;2.50;;;21.20;99.90;;;;;;5290493;28;20044;-69
2022/04/10 08:19:42;;;;;;;11.60;3.30;;;20.50;99.90;;;;;;5290762;28;20417;-72
2022/04/10 08:22:13;;;;;;;11.27;2.55;;;20.70;99.90;;;;;;5290032;28;20088;-72
2022/04/10 08:24:44;;;;;;;9.05;2.10;;;21.10;99.90;;;;;;5290833;28;20383;-70
2022/04/10 08:27:14;;;;;;;7.65;2.38;;;20.80;99.90;;;;;;5290718;28;20516;-69
2022/04/10 08:29:46;;;;;;;12.77;2.97;;;20.80;99.90;;;;;;5290672;28;20529;-73
2022/04/10 08:32:17;;;;;;;11.00;2.65;;;21.00;99.90;;;;;;5290347;28;20031;-69
2022/04/10 08:34:48;;;;;;;11.02;2.53;;;21.30;99.90;;;;;;5290127;28;20532;-70
2022/04/10 08:37:19;;;;;;;16.02;3.42;;;21.30;99.90;;;;;;5289304;28;20073;-72
2022/04/10 08:39:49;;;;;;;13.23;2.92;;;21.40;99.90;;;;;;5290175;28;20375;-73
2022/04/10 08:42:20;;;;;;;24.85;3.35;;;21.50;99.90;;;;;;5290051;28;20027;-72
2022/04/10 08:44:53;;;;;;;14.90;2.78;;;21.10;99.90;;;;;;5289999;28;20076;-70
2022/04/10 08:47:25;;;;;;;11.05;3.38;;;21.50;99.90;;;;;;5290180;28;20072;-72
2022/04/10 08:49:57;;;;;;;10.75;3.05;;;21.40;99.90;;;;;;5290298;28;20103;-70
2022/04/10 08:52:29;;;;;;;12.25;3.20;;;21.60;99.90;;;;;;5290240;28;20502;-70
2022/04/10 08:55:00;;;;;;;13.15;3.08;;;21.40;99.90;;;;;;5290204;28;20531;-72
2022/04/10 08:57:31;;;;;;;10.68;2.42;;;21.60;99.90;;;;;;5289996;28;20055;-71
2022/04/10 09:00:03;;;;;;;8.40;2.72;;;22.00;99.90;;;;;;5289964;28;20062;-70
2022/04/10 09:02:46;;;;;;;10.48;2.38;;;21.80;99.90;;;;;;5290053;28;20033;-73
2022/04/10 09:05:25;;;;;;;13.75;2.95;;;22.00;99.90;;;;;;5290165;28;20020;-69
2022/04/10 09:08:11;;;;;;;12.30;2.55;;;21.80;99.90;;;;;;5289894;28;20063;-71
2022/04/10 09:11:00;;;;;;;9.43;2.75;;;21.90;99.90;;;;;;5289658;28;20498;-72
2022/04/10 09:13:38;;;;;;;8.95;2.72;;;22.10;99.90;;;;;;5289923;28;20055;-70
2022/04/10 09:16:11;;;;;;;9.68;2.28;;;22.70;99.90;;;;;;5289650;28;20384;-69
2022/04/10 09:18:50;;;;;;;10.93;2.67;;;21.80;99.80;;;;;;5289949;28;20023;-69
2022/04/10 09:21:30;;;;;;;9.68;2.15;;;21.60;99.90;;;;;;5289680;28;20023;-69
2022/04/10 09:24:03;;;;;;;13.43;2.92;;;21.80;99.90;;;;;;5289799;28;20016;-72
2022/04/10 09:26:44;;;;;;;13.02;2.75;;;21.80;99.90;;;;;;5289606;28;20024;-70
2022/04/10 09:29:17;;;;;;;6.85;2.17;;;22.20;96.70;;;;;;5287580;28;20092;-70
2022/04/10 09:31:49;;;;;;;7.82;2.38;;;22.10;99.90;;;;;;5287551;28;20059;-73
2022/04/10 09:34:22;;;;;;;9.73;2.50;;;22.10;96.40;;;;;;5289668;28;20027;-69
2022/04/10 09:37:01;;;;;;;11.00;2.67;;;21.80;97.00;;;;;;5273235;28;20103;-70
2022/04/10 09:39:36;;;;;;;7.10;2.60;;;22.40;98.70;;;;;;5273045;28;20452;-70
2022/04/10 09:42:09;;;;;;;9.80;2.25;;;22.00;97.10;;;;;;5273012;28;20383;-69
2022/04/10 09:44:40;;;;;;;12.32;2.85;;;22.00;96.60;;;;;;5273103;28;20024;-71
2022/04/10 09:47:11;;;;;;;11.23;2.65;;;22.00;97.90;;;;;;5273750;28;20028;-70
2022/04/10 09:49:43;;;;;;;13.32;3.05;;;22.60;96.70;;;;;;5264967;28;20390;-72
2022/04/10 09:52:17;;;;;;;9.38;2.42;;;22.50;95.30;;;;;;5293990;28;20085;-67
2022/04/10 09:54:50;;;;;;;9.73;2.55;;;22.00;96.20;;;;;;5293812;28;20073;-68
2022/04/10 09:57:22;;;;;;;8.82;2.35;;;22.60;98.10;;;;;;5293783;28;20593;-68
2022/04/10 09:59:52;;;;;;;8.07;2.47;;;22.10;97.60;;;;;;5293702;28;20022;-68
2022/04/10 10:02:26;;;;;;;11.55;2.50;;;22.50;95.10;;;;;;5293706;28;20032;-68
2022/04/10 10:04:58;;;;;;;10.02;2.30;;;22.90;96.00;;;;;;5275303;28;20031;-71
2022/04/10 10:07:29;;;;;;;10.60;2.58;;;22.80;95.50;;;;;;5275354;28;20545;-69
2022/04/10 10:10:01;;;;;;;11.63;2.28;;;22.90;94.80;;;;;;5293411;28;20081;-70
2022/04/10 10:12:33;;;;;;;11.18;2.53;;;22.50;93.00;;;;;;5293469;28;20047;-69
2022/04/10 10:15:06;;;;;;;10.38;2.60;;;22.70;93.50;;;;;;5293179;28;20036;-70
2022/04/10 10:17:37;;;;;;;8.85;2.60;;;22.40;92.60;;;;;;5293524;28;20347;-73
2022/04/10 10:20:10;;;;;;;15.18;3.10;;;22.80;91.20;;;;;;5275356;28;20020;-71
2022/04/10 10:22:42;;;;;;;12.38;2.63;;;22.90;94.30;;;;;;5272175;28;20028;-69
2022/04/10 10:25:27;;;;;;;9.07;2.67;;;22.90;91.00;;;;;;5272243;28;20109;-72
2022/04/10 10:28:26;;;;;;;11.43;3.10;;;23.00;91.10;;;;;;5254047;28;20028;-70
2022/04/10 10:31:27;;;;;;;8.57;2.50;;;23.50;87.90;;;;;;5270683;28;20020;-68
2022/04/10 10:34:08;;;;;;;13.48;2.75;;;23.10;89.00;;;;;;5272082;28;20027;-69
2022/04/10 10:36:39;;;;;;;9.13;2.40;;;23.70;87.30;;;;;;5272012;28;20031;-68
2022/04/10 10:39:10;;;;;;;11.95;2.00;;;24.00;84.40;;;;;;5271866;28;20073;-71
2022/04/10 10:41:41;;;;;;;7.95;2.35;;;23.20;85.70;;;;;;5271564;28;20032;-73
2022/04/10 10:44:27;;;;;;;8.98;2.20;;;23.20;85.80;;;;;;5271115;28;20117;-68
2022/04/10 10:47:03;;;;;;;12.10;2.78;;;23.60;90.70;;;;;;5271689;28;20032;-69
2022/04/10 10:49:53;;;;;;;9.25;2.60;;;23.60;88.00;;;;;;5271712;28;20117;-71
2022/04/10 10:52:27;;;;;;;9.05;2.28;;;23.40;82.80;;;;;;5271358;28;20024;-68
2022/04/10 10:54:59;;;;;;;8.98;2.35;;;23.00;83.90;;;;;;5271576;28;20031;-72
2022/04/10 10:57:42;;;;;;;8.88;2.22;;;23.70;81.90;;;;;;5271578;28;20028;-72
2022/04/10 11:00:19;;;;;;;10.23;2.45;;;23.40;85.00;;;;;;5271432;28;20127;-69
2022/04/10 11:02:53;;;;;;;9.07;2.33;;;23.70;80.30;;;;;;5271332;28;20023;-70
2022/04/10 11:05:34;;;;;;;10.20;2.42;;;23.30;78.90;;;;;;5271486;28;20086;-70
2022/04/10 11:08:07;;;;;;;13.30;2.33;;;23.80;80.90;;;;;;5271820;28;20027;-72
2022/04/10 11:10:52;;;;;;;9.25;2.42;;;23.70;77.00;;;;;;5271257;28;20032;-70
2022/04/10 11:13:23;;;;;;;11.18;2.40;;;23.70;79.60;;;;;;5271135;28;20020;-69
2022/04/10 11:15:55;;;;;;;18.92;3.13;;;23.60;76.80;;;;;;5271164;28;20181;-70
2022/04/10 11:18:26;;;;;;;11.75;2.25;;;24.20;82.10;;;;;;5271148;28;20107;-71
2022/04/10 11:21:10;;;;;;;9.07;2.30;;;24.30;75.00;;;;;;5270595;28;20192;-70
2022/04/10 11:23:45;;;;;;;14.32;2.72;;;23.60;74.20;;;;;;5271174;28;20049;-73
2022/04/10 11:26:20;;;;;;;9.57;2.40;;;25.00;76.50;;;;;;5270800;28;20395;-71
2022/04/10 11:29:00;;;;;;;7.03;2.50;;;24.10;74.80;;;;;;5270617;28;20016;-72
2022/04/10 11:31:40;;;;;;;8.50;2.70;;;24.00;74.30;;;;;;5270555;28;20115;-72
2022/04/10 11:34:20;;;;;;;8.00;2.47;;;23.90;74.10;;;;;;5270794;28;20016;-73
2022/04/10 11:36:52;;;;;;;8.00;2.28;;;23.70;73.60;;;;;;5270864;28;20020;-71
2022/04/10 11:39:34;;;;;;;11.05;2.35;;;23.80;75.50;;;;;;5271090;28;20106;-69
2022/04/10 11:42:09;;;;;;;13.95;2.30;;;23.70;73.10;;;;;;5270712;28;20032;-69
2022/04/10 11:44:40;;;;;;;10.23;2.25;;;24.70;70.70;;;;;;5270391;28;20032;-73
2022/04/10 11:47:12;;;;;;;8.15;2.35;;;24.00;71.00;;;;;;5272957;28;20361;-73
2022/04/10 11:49:51;;;;;;;15.85;2.55;;;24.00;74.50;;;;;;5288605;28;20035;-73
2022/04/10 11:52:22;;;;;;;9.93;2.00;;;24.50;74.00;;;;;;5269917;28;20107;-73
2022/04/10 11:54:53;;;;;;;7.35;2.28;;;24.10;71.70;;;;;;5271163;28;20028;-70
2022/04/10 11:57:24;;;;;;;7.22;1.75;;;23.90;70.90;;;;;;5268900;28;20047;-69
2022/04/10 11:59:55;;;;;;;12.77;2.22;;;23.60;69.40;;;;;;5272756;28;20391;-68
2022/04/10 12:02:27;;;;;;;13.85;2.28;;;24.00;70.40;;;;;;5289022;28;20036;-69
2022/04/10 12:05:00;;;;;;;9.98;2.65;;;24.30;74.40;;;;;;5288710;28;20035;-73
2022/04/10 12:07:31;;;;;;;7.55;2.53;;;24.60;69.20;;;;;;5281168;28;20110;-73
2022/04/10 12:10:02;;;;;;;14.25;4.68;;;24.10;71.60;;;;;;5270166;28;20115;-73
2022/04/10 12:12:38;;;;;;;7.85;2.28;;;24.70;73.60;;;;;;5269775;28;20016;-69
2022/04/10 12:15:19;;;;;;;8.30;2.55;;;24.20;70.80;;;;;;5269606;28;20101;-70
2022/04/10 12:18:05;;;;;;;9.23;2.15;;;24.00;70.00;;;;;;5270021;28;20062;-74
2022/04/10 12:20:38;;;;;;;7.20;1.85;;;24.20;69.20;;;;;;5269622;28;20480;-70
2022/04/10 12:23:26;;;;;;;9.43;2.45;;;24.30;69.20;;;;;;5269538;28;20036;-72
2022/04/10 12:25:58;;;;;;;10.18;2.10;;;23.80;71.40;;;;;;5269454;28;20019;-70
2022/04/10 12:28:30;;;;;;;10.38;2.17;;;24.10;73.10;;;;;;5269894;28;20032;-70
2022/04/10 12:31:02;;;;;;;9.80;2.55;;;23.80;70.30;;;;;;5269809;28;20028;-69
2022/04/10 12:33:33;;;;;;;12.77;2.17;;;23.60;70.50;;;;;;5269372;28;20027;-71
2022/04/10 12:36:21;;;;;;;9.88;2.20;;;23.90;72.20;;;;;;5269743;28;20046;-69
2022/04/10 12:38:55;;;;;;;10.77;2.70;;;24.20;70.00;;;;;;5288073;28;20036;-73
2022/04/10 12:41:31;;;;;;;9.05;2.15;;;23.80;68.00;;;;;;5290550;28;20031;-73
2022/04/10 12:44:06;;;;;;;7.25;2.67;;;23.90;68.90;;;;;;5290605;28;20024;-69
2022/04/10 12:46:38;;;;;;;10.23;2.10;;;23.80;68.50;;;;;;5290724;28;20054;-73
2022/04/10 12:49:10;;;;;;;8.55;2.10;;;23.90;70.30;;;;;;5290542;28;20110;-69
2022/04/10 12:51:50;;;;;;;8.30;2.03;;;24.20;68.40;;;;;;5290196;28;20024;-73
2022/04/10 12:54:33;;;;;;;;;;;24.10;66.90;;;;;;5290741;28;20027;-70
2022/04/10 12:57:05;;;;;;;12.00;2.75;;;24.00;66.10;;;;;;5290322;28;19971;-70
2022/04/10 12:59:42;;;;;;;8.77;2.20;;;24.10;67.80;;;;;;5290311;28;20023;-69
2022/04/10 13:02:36;;;;;;;11.68;2.08;;;24.20;66.40;;;;;;5271856;28;20092;-70
2022/04/10 13:05:13;;;;;;;5.43;2.13;;;24.00;66.20;;;;;;5289907;28;20073;-72
2022/04/10 13:07:55;;;;;;;11.38;2.25;;;24.50;70.00;;;;;;5289879;28;20036;-72